createdAt,value
2019-05-11T00:00:21.990Z,2.37
2019-05-11T00:02:50.757Z,1.57
2019-05-11T00:05:21.075Z,2.07
2019-05-11T00:07:50.398Z,2.47
2019-05-11T00:10:23.640Z,2.80
2019-05-11T00:12:52.307Z,3.00
2019-05-11T00:15:30.109Z,3.57
2019-05-11T00:17:58.823Z,3.03
2019-05-11T00:20:27.578Z,2.70
2019-05-11T00:22:56.121Z,3.20
2019-05-11T00:25:24.815Z,3.43
2019-05-11T00:27:58.157Z,2.90
2019-05-11T00:30:26.871Z,2.70
2019-05-11T00:32:55.417Z,2.93
2019-05-11T00:35:26.647Z,3.13
2019-05-11T00:37:55.313Z,3.63
2019-05-11T00:40:24.231Z,3.80
2019-05-11T00:42:57.198Z,3.97
2019-05-11T00:45:27.122Z,4.57
2019-05-11T00:47:59.583Z,4.73
2019-05-11T00:50:38.869Z,5.03
2019-05-11T00:53:04.278Z,5.00
2019-05-11T00:55:36.229Z,4.90
2019-05-11T00:58:04.934Z,5.93
2019-05-11T01:00:33.833Z,5.53
2019-05-11T01:03:05.687Z,6.20
2019-05-11T01:05:37.649Z,6.50
2019-05-11T01:08:08.637Z,6.13
2019-05-11T01:10:42.174Z,6.97
2019-05-11T01:13:07.520Z,7.40
2019-05-11T01:15:36.400Z,7.33
2019-05-11T01:18:05.144Z,6.63
2019-05-11T01:20:34.001Z,7.07
2019-05-11T01:23:08.687Z,8.00
2019-05-11T01:25:37.693Z,7.87
2019-05-11T01:28:06.931Z,8.90
2019-05-11T01:30:38.681Z,8.30
2019-05-11T01:33:09.729Z,8.03
2019-05-11T01:35:38.301Z,8.57
2019-05-11T01:38:06.913Z,8.53
2019-05-11T01:40:35.548Z,8.50
2019-05-11T01:43:04.251Z,8.67
2019-05-11T01:45:36.141Z,8.17
2019-05-11T01:48:04.826Z,8.70
2019-05-11T01:50:33.572Z,7.97
2019-05-11T01:53:03.676Z,8.00
2019-05-11T01:55:32.326Z,7.80
2019-05-11T01:58:00.992Z,8.50
2019-05-11T02:00:29.687Z,7.87
2019-05-11T02:02:58.579Z,8.57
2019-05-11T02:05:32.842Z,8.37
2019-05-11T02:08:02.257Z,7.73
2019-05-11T02:10:31.320Z,8.10
2019-05-11T02:13:00.072Z,8.53
2019-05-11T02:15:28.794Z,8.03
2019-05-11T02:17:57.427Z,8.00
2019-05-11T02:20:27.538Z,7.87
2019-05-11T02:22:56.308Z,10.83
2019-05-11T02:25:25.008Z,9.23
2019-05-11T02:27:53.738Z,9.83
2019-05-11T02:30:23.523Z,9.43
2019-05-11T02:32:52.762Z,10.60
2019-05-11T02:35:21.603Z,10.77
2019-05-11T02:37:51.960Z,11.00
2019-05-11T02:40:21.474Z,11.97
2019-05-11T02:42:50.117Z,12.03
2019-05-11T02:45:23.236Z,13.07
2019-05-11T02:47:52.219Z,11.93
2019-05-11T02:50:20.892Z,11.50
2019-05-11T02:52:49.594Z,10.00
2019-05-11T02:55:18.225Z,10.07
2019-05-11T02:57:46.915Z,14.17
2019-05-11T03:00:18.563Z,12.37
2019-05-11T03:02:47.133Z,12.37
2019-05-11T03:05:15.878Z,12.13
2019-05-11T03:07:45.863Z,11.40
2019-05-11T03:10:17.552Z,11.03
2019-05-11T03:12:47.689Z,11.97
2019-05-11T03:15:16.596Z,12.70
2019-05-11T03:17:45.428Z,10.23
2019-05-11T03:20:14.166Z,11.37
2019-05-11T03:22:42.757Z,12.00
2019-05-11T03:25:11.547Z,11.73
2019-05-11T03:27:40.479Z,13.23
2019-05-11T03:30:09.553Z,11.97
2019-05-11T03:32:38.198Z,11.67
2019-05-11T03:35:07.135Z,12.87
2019-05-11T03:37:35.739Z,13.20
2019-05-11T03:40:06.758Z,12.27
2019-05-11T03:42:35.498Z,13.07
2019-05-11T03:45:05.908Z,13.70
2019-05-11T03:47:34.479Z,14.53
2019-05-11T03:50:03.729Z,15.60
2019-05-11T03:52:32.365Z,16.90
2019-05-11T03:55:00.929Z,17.40
2019-05-11T03:57:29.666Z,17.87
2019-05-11T03:59:58.376Z,18.03
2019-05-11T04:02:29.077Z,17.77
2019-05-11T04:04:57.902Z,19.30
2019-05-11T04:07:26.646Z,17.53
2019-05-11T04:09:55.298Z,18.87
2019-05-11T04:12:33.968Z,19.03
2019-05-11T04:14:54.335Z,21.27
2019-05-11T04:17:23.049Z,19.10
2019-05-11T04:19:53.175Z,20.60
2019-05-11T04:22:21.819Z,20.63
2019-05-11T04:24:50.517Z,19.10
2019-05-11T04:27:20.787Z,20.17
2019-05-11T04:29:49.368Z,20.07
2019-05-11T04:32:17.998Z,19.67
2019-05-11T04:34:46.665Z,20.40
2019-05-11T04:37:15.382Z,20.07
2019-05-11T04:39:44.080Z,18.20
2019-05-11T04:42:14.290Z,19.63
2019-05-11T04:44:42.915Z,19.73
2019-05-11T04:47:14.527Z,19.80
2019-05-11T04:49:43.193Z,19.50
2019-05-11T04:52:12.167Z,20.63
2019-05-11T04:54:40.816Z,19.93
2019-05-11T04:57:09.483Z,20.53
2019-05-11T04:59:38.177Z,19.33
2019-05-11T05:02:06.809Z,20.17
2019-05-11T05:04:35.677Z,19.83
2019-05-11T05:07:05.489Z,19.97
2019-05-11T05:09:36.148Z,19.07
2019-05-11T05:12:08.541Z,19.57
2019-05-11T05:14:35.264Z,19.90
2019-05-11T05:17:04.627Z,20.00
2019-05-11T05:19:33.300Z,19.23
2019-05-11T05:22:04.637Z,19.30
2019-05-11T05:24:33.288Z,20.47
2019-05-11T05:27:02.197Z,19.93
2019-05-11T05:29:30.813Z,19.90
2019-05-11T05:31:59.459Z,20.73
2019-05-11T05:34:28.128Z,20.33
2019-05-11T05:36:57.233Z,20.60
2019-05-11T05:39:26.026Z,20.90
2019-05-11T05:41:57.595Z,21.03
2019-05-11T05:44:28.015Z,21.77
2019-05-11T05:46:56.994Z,21.93
2019-05-11T05:49:25.809Z,22.37
2019-05-11T05:51:58.046Z,22.10
2019-05-11T05:54:24.749Z,24.47
2019-05-11T05:56:53.476Z,24.37
2019-05-11T05:59:22.177Z,22.97
2019-05-11T06:01:51.385Z,23.63
2019-05-11T06:04:22.682Z,22.73
2019-05-11T06:06:54.262Z,22.83
2019-05-11T06:09:22.895Z,23.73
2019-05-11T06:11:51.494Z,24.70
2019-05-11T06:14:20.071Z,22.67
2019-05-11T06:16:48.706Z,23.77
2019-05-11T06:19:17.449Z,23.43
2019-05-11T06:21:46.082Z,21.77
2019-05-11T06:24:16.379Z,23.10
2019-05-11T06:26:47.885Z,21.43
2019-05-11T06:29:16.602Z,21.47
2019-05-11T06:31:45.302Z,21.27
2019-05-11T06:34:13.909Z,21.97
2019-05-11T06:36:45.568Z,21.60
2019-05-11T06:39:17.472Z,21.63
2019-05-11T06:41:46.164Z,21.07
2019-05-11T06:44:15.072Z,20.47
2019-05-11T06:46:43.842Z,19.83
2019-05-11T06:49:12.594Z,20.50
2019-05-11T06:51:43.019Z,20.17
2019-05-11T06:54:24.247Z,18.23
2019-05-11T06:56:44.192Z,20.17
2019-05-11T06:59:15.597Z,18.33
2019-05-11T07:01:44.312Z,17.60
2019-05-11T07:04:13.067Z,18.70
2019-05-11T07:06:41.712Z,18.50
2019-05-11T07:09:10.643Z,18.47
2019-05-11T07:11:39.479Z,18.13
2019-05-11T07:14:20.077Z,18.13
2019-05-11T07:16:38.419Z,18.13
2019-05-11T07:19:09.043Z,18.13
2019-05-11T07:21:39.509Z,17.87
2019-05-11T07:24:08.235Z,17.87
2019-05-11T07:26:36.918Z,17.70
2019-05-11T07:29:05.617Z,18.90
2019-05-11T07:31:34.457Z,18.83
2019-05-11T07:34:04.603Z,19.13
2019-05-11T07:36:33.235Z,18.93
2019-05-11T07:39:02.133Z,18.57
2019-05-11T07:41:31.434Z,18.47
2019-05-11T07:44:00.647Z,19.53
2019-05-11T07:46:29.705Z,20.00
2019-05-11T07:49:00.811Z,19.53
2019-05-11T07:51:29.450Z,19.83
2019-05-11T07:54:04.235Z,19.80
2019-05-11T07:56:33.337Z,20.37
2019-05-11T07:59:03.662Z,19.50
2019-05-11T08:01:32.297Z,19.27
2019-05-11T08:04:00.897Z,19.00
2019-05-11T08:06:29.668Z,19.63
2019-05-11T08:09:01.312Z,19.40
2019-05-11T08:11:31.676Z,18.63
2019-05-11T08:14:07.770Z,19.07
2019-05-11T08:16:39.846Z,18.27
2019-05-11T08:19:10.691Z,18.33
2019-05-11T08:21:39.791Z,18.23
2019-05-11T08:24:09.098Z,18.30
2019-05-11T08:26:39.656Z,18.67
2019-05-11T08:29:08.448Z,18.97
2019-05-11T08:31:40.137Z,19.37
2019-05-11T08:34:09.018Z,19.47
2019-05-11T08:36:38.063Z,20.73
2019-05-11T08:39:08.238Z,20.83
2019-05-11T08:41:38.394Z,19.07
2019-05-11T08:44:08.873Z,19.80
2019-05-11T08:46:38.876Z,19.07
2019-05-11T08:49:08.882Z,19.17
2019-05-11T08:51:40.059Z,20.00
2019-05-11T08:54:10.160Z,19.97
2019-05-11T08:56:41.673Z,19.50
2019-05-11T08:59:12.795Z,18.43
2019-05-11T09:01:48.231Z,18.57
2019-05-11T09:04:18.262Z,17.83
2019-05-11T09:06:54.792Z,17.23
2019-05-11T09:09:23.763Z,20.72
2019-05-11T09:11:52.638Z,18.23
2019-05-11T09:14:21.399Z,17.67
2019-05-11T09:16:51.602Z,17.70
2019-05-11T09:19:20.703Z,16.57
2019-05-11T09:21:49.710Z,16.50
2019-05-11T09:24:19.078Z,17.43
2019-05-11T09:26:48.489Z,17.13
2019-05-11T09:29:20.560Z,16.67
2019-05-11T09:31:55.282Z,16.70
2019-05-11T09:34:24.126Z,16.73
2019-05-11T09:36:54.660Z,16.60
2019-05-11T09:39:23.934Z,15.77
2019-05-11T09:41:53.076Z,14.77
2019-05-11T09:44:21.963Z,15.97
2019-05-11T09:47:05.079Z,15.87
2019-05-11T09:49:40.043Z,15.43
2019-05-11T09:51:58.730Z,15.53
2019-05-11T09:54:28.958Z,15.93
2019-05-11T09:56:58.644Z,16.13
2019-05-11T09:59:28.193Z,15.97
2019-05-11T10:01:58.979Z,15.13
2019-05-11T10:04:28.866Z,14.50
2019-05-11T10:06:58.514Z,14.87
2019-05-11T10:09:28.198Z,15.57
2019-05-11T10:12:01.574Z,15.30
2019-05-11T10:14:31.720Z,14.70
2019-05-11T10:17:03.094Z,15.93
2019-05-11T10:19:35.837Z,17.53
2019-05-11T10:22:07.845Z,18.07
2019-05-11T10:24:38.318Z,18.87
2019-05-11T10:27:08.515Z,19.07
2019-05-11T10:29:38.214Z,18.30
2019-05-11T10:32:07.982Z,18.57
2019-05-11T10:34:38.706Z,19.17
2019-05-11T10:37:10.448Z,19.27
2019-05-11T10:39:39.446Z,19.23
2019-05-11T10:42:09.753Z,19.37
2019-05-11T10:44:38.650Z,19.97
2019-05-11T10:47:08.191Z,19.37
2019-05-11T10:49:39.278Z,19.27
2019-05-11T10:52:13.245Z,19.17
2019-05-11T10:54:45.000Z,18.80
2019-05-11T10:57:19.831Z,18.53
2019-05-11T10:59:48.958Z,19.43
2019-05-11T11:02:27.687Z,18.97
2019-05-11T11:04:58.859Z,19.20
2019-05-11T11:07:29.592Z,18.37
2019-05-11T11:09:58.243Z,18.33
2019-05-11T11:12:27.918Z,18.07
2019-05-11T11:14:58.669Z,18.43
2019-05-11T11:17:37.975Z,17.40
2019-05-11T11:20:08.815Z,17.37
2019-05-11T11:22:43.879Z,18.37
2019-05-11T11:25:10.603Z,18.33
2019-05-11T11:27:41.022Z,18.40
2019-05-11T11:30:10.533Z,18.43
2019-05-11T11:32:40.897Z,17.27
2019-05-11T11:35:12.619Z,18.83
2019-05-11T11:37:41.285Z,18.17
2019-05-11T11:40:12.333Z,19.13
2019-05-11T11:42:47.842Z,18.57
2019-05-11T11:45:12.225Z,18.27
2019-05-11T11:47:45.543Z,18.17
2019-05-11T11:50:18.847Z,18.20
2019-05-11T11:52:47.815Z,16.30
2019-05-11T11:55:18.615Z,15.80
2019-05-11T11:57:49.002Z,16.43
2019-05-11T12:00:18.469Z,15.17
2019-05-11T12:02:49.027Z,15.97
2019-05-11T12:05:17.791Z,15.20
2019-05-11T12:07:49.037Z,15.07
2019-05-11T12:10:28.676Z,14.60
2019-05-11T12:12:58.107Z,14.97
2019-05-11T12:15:29.833Z,16.33
2019-05-11T12:17:58.917Z,15.57
2019-05-11T12:20:29.607Z,16.07
2019-05-11T12:23:01.310Z,16.60
2019-05-11T12:25:40.834Z,15.40
2019-05-11T12:28:09.731Z,16.13
2019-05-11T12:30:39.693Z,16.07
2019-05-11T12:33:08.858Z,15.67
2019-05-11T12:35:39.587Z,14.07
2019-05-11T12:38:12.743Z,13.93
2019-05-11T12:40:41.417Z,14.73
2019-05-11T12:43:10.381Z,13.90
2019-05-11T12:45:41.431Z,13.03
2019-05-11T12:48:12.884Z,12.20
2019-05-11T12:50:48.251Z,12.27
2019-05-11T12:53:18.432Z,12.07
2019-05-11T12:55:48.398Z,11.33
2019-05-11T12:58:28.136Z,10.43
2019-05-11T13:01:02.595Z,9.47
2019-05-11T13:03:34.175Z,10.60
2019-05-11T13:06:08.190Z,10.30
2019-05-11T13:08:38.879Z,10.57
2019-05-11T13:11:08.225Z,11.53
2019-05-11T13:13:37.816Z,10.70
2019-05-11T13:16:08.748Z,11.23
2019-05-11T13:18:38.637Z,10.50
2019-05-11T13:21:18.373Z,9.87
2019-05-11T13:23:49.846Z,8.77
2019-05-11T13:26:19.031Z,9.47
2019-05-11T13:28:53.468Z,9.20
2019-05-11T13:31:27.792Z,9.20
2019-05-11T13:33:58.513Z,8.03
2019-05-11T13:36:28.620Z,7.93
2019-05-11T13:39:02.686Z,7.77
2019-05-11T13:41:32.835Z,7.43
2019-05-11T13:44:08.830Z,7.80
2019-05-11T13:46:39.819Z,7.40
2019-05-11T13:49:10.696Z,6.77
2019-05-11T13:51:41.567Z,6.93
2019-05-11T13:54:11.635Z,7.30
2019-05-11T13:56:40.286Z,7.63
2019-05-11T13:59:10.972Z,7.83
2019-05-11T14:01:39.687Z,8.77
2019-05-11T14:04:17.919Z,9.50
2019-05-11T14:06:47.962Z,8.60
2019-05-11T14:09:20.293Z,7.90
2019-05-11T14:11:51.538Z,9.13
2019-05-11T14:14:20.697Z,9.30
2019-05-11T14:16:49.573Z,9.23
2019-05-11T14:19:19.379Z,8.50
2019-05-11T14:21:52.155Z,9.17
2019-05-11T14:24:22.354Z,8.87
2019-05-11T14:26:58.023Z,9.03
2019-05-11T14:29:27.740Z,9.77
2019-05-11T14:32:00.489Z,9.87
2019-05-11T14:34:31.761Z,9.63
2019-05-11T14:37:03.252Z,8.97
2019-05-11T14:39:38.362Z,8.53
2019-05-11T14:42:22.029Z,8.50
2019-05-11T14:44:48.344Z,9.73
2019-05-11T14:47:20.352Z,8.43
2019-05-11T14:49:59.089Z,8.57
2019-05-11T14:52:28.083Z,7.67
2019-05-11T14:54:58.539Z,8.80
2019-05-11T14:57:44.984Z,8.93
2019-05-11T15:00:15.154Z,8.67
2019-05-11T15:02:49.081Z,7.60
2019-05-11T15:05:23.049Z,8.00
2019-05-11T15:07:52.966Z,7.80
2019-05-11T15:10:22.666Z,7.07
2019-05-11T15:12:51.384Z,7.77
2019-05-11T15:15:23.299Z,7.73
2019-05-11T15:17:52.276Z,7.33
2019-05-11T15:20:22.715Z,6.73
2019-05-11T15:22:51.538Z,6.07
2019-05-11T15:25:22.396Z,6.37
2019-05-11T15:27:51.043Z,6.47
2019-05-11T15:30:20.597Z,5.97
2019-05-11T15:32:52.718Z,6.50
2019-05-11T15:35:32.910Z,5.60
2019-05-11T15:38:01.836Z,6.07
2019-05-11T15:40:31.989Z,6.13
2019-05-11T15:43:00.890Z,5.60
2019-05-11T15:45:32.311Z,5.83
2019-05-11T15:48:01.333Z,5.67
2019-05-11T15:50:39.723Z,6.13
2019-05-11T15:53:08.743Z,5.90
2019-05-11T15:55:42.318Z,6.23
2019-05-11T15:58:11.919Z,5.13
2019-05-11T16:00:40.667Z,6.13
2019-05-11T16:03:11.794Z,5.77
2019-05-11T16:05:41.816Z,5.67
2019-05-11T16:08:10.872Z,5.70
2019-05-11T16:10:41.747Z,5.03
2019-05-11T16:13:10.708Z,5.33
2019-05-11T16:15:40.922Z,5.40
2019-05-11T16:18:12.082Z,4.63
2019-05-11T16:20:40.336Z,5.27
2019-05-11T16:23:09.001Z,4.60
2019-05-11T16:25:38.244Z,5.03
2019-05-11T16:28:10.354Z,5.10
2019-05-11T16:30:40.203Z,4.83
2019-05-11T16:33:10.397Z,4.77
2019-05-11T16:35:43.370Z,4.90
2019-05-11T16:38:13.864Z,5.07
2019-05-11T16:40:42.628Z,5.30
2019-05-11T16:43:13.113Z,4.70
2019-05-11T16:45:43.111Z,5.77
2019-05-11T16:48:11.655Z,5.73
2019-05-11T16:50:40.367Z,5.07
2019-05-11T16:53:11.806Z,5.93
2019-05-11T16:55:48.603Z,6.17
2019-05-11T16:58:19.768Z,6.20
2019-05-11T17:00:49.227Z,5.53
2019-05-11T17:03:18.236Z,6.03
2019-05-11T17:05:50.062Z,6.30
2019-05-11T17:08:18.934Z,6.13
2019-05-11T17:10:59.281Z,6.27
2019-05-11T17:13:30.077Z,6.13
2019-05-11T17:15:58.522Z,6.47
2019-05-11T17:18:30.356Z,6.90
2019-05-11T17:20:59.195Z,6.73
2019-05-11T17:23:30.932Z,7.70
2019-05-11T17:26:01.152Z,11.77
2019-05-11T17:28:32.650Z,6.17
2019-05-11T17:31:08.221Z,5.47
2019-05-11T17:33:40.190Z,6.53
2019-05-11T17:36:10.453Z,7.07
2019-05-11T17:38:39.202Z,6.53
2019-05-11T17:41:11.054Z,8.13
2019-05-11T17:43:39.682Z,6.60
2019-05-11T17:46:08.324Z,6.63
2019-05-11T17:48:38.859Z,6.47
2019-05-11T17:51:20.453Z,5.60
2019-05-11T17:53:39.215Z,6.23
2019-05-11T17:56:08.180Z,5.97
2019-05-11T17:58:42.813Z,6.47
2019-05-11T18:01:18.666Z,6.17
2019-05-11T18:03:50.341Z,5.77
2019-05-11T18:06:22.594Z,6.23
2019-05-11T18:08:52.425Z,6.30
2019-05-11T18:11:21.571Z,6.00
2019-05-11T18:13:53.583Z,6.60
2019-05-11T18:16:26.104Z,6.33
2019-05-11T18:18:54.935Z,6.83
2019-05-11T18:21:27.951Z,5.30
2019-05-11T18:24:09.113Z,6.70
2019-05-11T18:26:38.308Z,6.40
2019-05-11T18:29:07.063Z,7.00
2019-05-11T18:31:38.380Z,7.63
2019-05-11T18:34:09.270Z,7.27
2019-05-11T18:36:38.287Z,6.57
2019-05-11T18:39:08.321Z,7.37
2019-05-11T18:41:39.250Z,7.93
2019-05-11T18:44:10.970Z,7.23
2019-05-11T18:46:42.681Z,6.50
2019-05-11T18:49:11.600Z,6.50
2019-05-11T18:51:40.239Z,7.20
2019-05-11T18:54:10.068Z,6.77
2019-05-11T18:56:38.783Z,7.17
2019-05-11T18:59:08.901Z,6.23
2019-05-11T19:01:39.519Z,6.27
2019-05-11T19:04:18.383Z,6.07
2019-05-11T19:06:48.524Z,6.43
2019-05-11T19:09:20.424Z,8.77
2019-05-11T19:11:55.261Z,7.40
2019-05-11T19:14:28.115Z,7.17
2019-05-11T19:16:58.222Z,7.33
2019-05-11T19:19:28.881Z,8.03
2019-05-11T19:21:58.722Z,6.90
2019-05-11T19:24:30.602Z,6.77
2019-05-11T19:27:03.430Z,6.97
2019-05-11T19:29:37.956Z,6.67
2019-05-11T19:32:10.814Z,7.03
2019-05-11T19:34:38.868Z,7.30
2019-05-11T19:37:08.594Z,7.37
2019-05-11T19:39:38.452Z,7.03
2019-05-11T19:42:09.630Z,7.40
2019-05-11T19:44:38.625Z,6.70
2019-05-11T19:47:13.454Z,7.33
2019-05-11T19:49:42.238Z,6.70
2019-05-11T19:52:11.193Z,6.90
2019-05-11T19:54:39.902Z,7.50
2019-05-11T19:57:10.547Z,6.80
2019-05-11T19:59:50.984Z,7.10
2019-05-11T20:02:22.356Z,9.07
2019-05-11T20:04:51.065Z,7.43
2019-05-11T20:07:21.348Z,21.67
2019-05-11T20:09:50.288Z,13.73
2019-05-11T20:12:19.591Z,12.10
2019-05-11T20:14:51.359Z,17.20
2019-05-11T20:17:21.835Z,15.17
2019-05-11T20:19:50.547Z,22.23
2019-05-11T20:22:20.369Z,17.80
2019-05-11T20:24:58.489Z,11.13
2019-05-11T20:27:31.054Z,8.70
2019-05-11T20:30:02.688Z,8.13
2019-05-11T20:32:31.327Z,7.73
2019-05-11T20:35:00.113Z,7.73
2019-05-11T20:37:30.820Z,8.10
2019-05-11T20:39:59.878Z,8.07
2019-05-11T20:42:28.557Z,7.43
2019-05-11T20:45:01.041Z,6.43
2019-05-11T20:47:32.721Z,6.23
2019-05-11T20:50:07.914Z,5.63
2019-05-11T20:52:43.487Z,4.93
2019-05-11T20:55:13.150Z,5.20
2019-05-11T20:57:43.872Z,4.27
2019-05-11T21:00:13.573Z,4.10
2019-05-11T21:02:45.642Z,4.10
2019-05-11T21:05:26.048Z,4.00
2019-05-11T21:07:57.949Z,4.33
2019-05-11T21:10:28.050Z,4.27
2019-05-11T21:13:03.654Z,3.90
2019-05-11T21:15:35.497Z,3.67
2019-05-11T21:18:07.769Z,3.90
2019-05-11T21:20:38.598Z,4.00
2019-05-11T21:23:15.318Z,4.60
2019-05-11T21:25:47.322Z,4.77
2019-05-11T21:28:16.240Z,3.40
2019-05-11T21:31:04.071Z,4.07
2019-05-11T21:33:29.087Z,3.57
2019-05-11T21:36:00.792Z,3.50
2019-05-11T21:38:38.501Z,3.20
2019-05-11T21:41:08.848Z,3.17
2019-05-11T21:43:43.224Z,3.60
2019-05-11T21:46:12.085Z,4.00
2019-05-11T21:48:51.678Z,3.30
2019-05-11T21:51:23.622Z,3.57
2019-05-11T21:54:02.347Z,3.20
2019-05-11T21:56:41.581Z,3.50
2019-05-11T21:59:10.203Z,3.63
2019-05-11T22:01:39.398Z,3.90
2019-05-11T22:04:11.187Z,3.50
2019-05-11T22:06:39.233Z,4.17
2019-05-11T22:09:09.351Z,3.73
2019-05-11T22:11:39.743Z,4.30
2019-05-11T22:14:08.431Z,4.03
2019-05-11T22:16:38.739Z,3.40
2019-05-11T22:19:17.629Z,3.40
2019-05-11T22:21:49.685Z,3.70
2019-05-11T22:24:18.716Z,3.87
2019-05-11T22:26:47.429Z,3.83
2019-05-11T22:29:24.444Z,4.30
2019-05-11T22:31:54.726Z,3.27
2019-05-11T22:34:23.428Z,3.57
2019-05-11T22:36:52.518Z,3.97
2019-05-11T22:39:30.526Z,4.00
2019-05-11T22:42:05.456Z,3.43
2019-05-11T22:44:35.995Z,3.70
2019-05-11T22:47:04.534Z,3.47
2019-05-11T22:49:35.378Z,4.30
2019-05-11T22:52:04.249Z,3.93
2019-05-11T22:54:34.058Z,4.43
2019-05-11T22:57:04.238Z,3.97
2019-05-11T22:59:32.943Z,5.53
2019-05-11T23:02:03.191Z,4.00
2019-05-11T23:04:32.661Z,4.20
2019-05-11T23:07:01.287Z,4.93
2019-05-11T23:09:31.658Z,4.20
2019-05-11T23:12:01.144Z,4.23
2019-05-11T23:14:30.065Z,3.77
2019-05-11T23:16:58.893Z,3.93
2019-05-11T23:19:27.943Z,4.23
2019-05-11T23:21:58.731Z,3.67
2019-05-11T23:24:28.707Z,3.53
2019-05-11T23:26:57.682Z,3.27
2019-05-11T23:29:27.929Z,4.03
2019-05-11T23:31:58.346Z,3.77
2019-05-11T23:34:28.248Z,3.77
2019-05-11T23:37:00.337Z,3.63
2019-05-11T23:39:31.813Z,4.33
2019-05-11T23:42:01.638Z,3.80
2019-05-11T23:44:32.848Z,3.80
2019-05-11T23:47:09.511Z,3.70
2019-05-11T23:49:38.076Z,3.30
2019-05-11T23:52:07.638Z,3.90
2019-05-11T23:54:44.082Z,3.47
2019-05-11T23:57:12.719Z,3.80
2019-05-11T23:59:42.806Z,3.70
